Time;durP1;ratioP1;P1;durP2;ratioP2;P2;SDS_P1;SDS_P2;PMS_P1;PMS_P2;Temp;Humidity;BMP_temperature;BMP_pressure;BME280_temperature;BME280_humidity;BME280_pressure;Samples;Min_cycle;Max_cycle;Signal;HPM_P1;HPM_P2
2023/04/05 00:01:49;;;;;;;0.90;0.80;;;0.30;79.30;;;;;;5059753;28;20032;-79
2023/04/05 00:04:19;;;;;;;1.58;0.95;;;0.30;79.30;;;;;;5058722;28;20067;-79
2023/04/05 00:06:54;;;;;;;1.65;1.05;;;0.30;79.30;;;;;;5040027;28;20037;-78
2023/04/05 00:09:23;;;;;;;1.83;1.25;;;0.30;79.60;;;;;;5038429;28;20032;-77
2023/04/05 00:11:49;;;;;;;1.02;0.88;;;0.30;79.80;;;;;;5038764;28;20033;-78
2023/04/05 00:14:15;;;;;;;1.63;0.70;;;0.30;80.00;;;;;;5037647;28;20061;-79
2023/04/05 00:16:41;;;;;;;1.20;0.77;;;0.30;80.20;;;;;;5052145;28;20025;-78
2023/04/05 00:19:07;;;;;;;0.73;0.65;;;0.20;80.50;;;;;;5057283;28;20025;-78
2023/04/05 00:21:33;;;;;;;1.27;0.90;;;0.20;80.70;;;;;;5054875;28;20123;-78
2023/04/05 00:23:59;;;;;;;1.45;0.80;;;0.30;80.80;;;;;;5048973;28;20052;-79
2023/04/05 00:26:36;;;;;;;1.17;0.90;;;0.20;80.60;;;;;;5058400;28;20029;-78
2023/04/05 00:29:02;;;;;;;1.40;0.63;;;0.30;80.80;;;;;;5047005;28;20106;-78
2023/04/05 00:31:28;;;;;;;1.55;1.05;;;0.30;80.70;;;;;;5039957;28;20029;-79
2023/04/05 00:33:54;;;;;;;1.15;0.93;;;0.20;80.60;;;;;;5042675;28;20476;-77
2023/04/05 00:36:20;;;;;;;1.25;0.88;;;0.30;80.70;;;;;;5044354;28;20048;-79
2023/04/05 00:38:48;;;;;;;0.68;0.68;;;0.30;80.60;;;;;;5056127;28;20017;-79
2023/04/05 00:41:14;;;;;;;0.70;0.70;;;0.20;80.70;;;;;;5057009;28;20070;-79
2023/04/05 00:43:40;;;;;;;1.55;0.90;;;0.20;81.00;;;;;;5056128;28;20024;-78
2023/04/05 00:46:06;;;;;;;0.90;0.75;;;0.20;81.50;;;;;;5053160;28;20040;-79
2023/04/05 00:48:33;;;;;;;0.70;0.47;;;0.20;82.00;;;;;;5041872;28;20025;-78
2023/04/05 00:50:59;;;;;;;0.60;0.60;;;0.20;82.10;;;;;;5047670;28;20022;-79
2023/04/05 00:53:29;;;;;;;1.08;0.68;;;0.10;82.30;;;;;;5046970;28;20029;-79
2023/04/05 00:55:55;;;;;;;0.80;0.80;;;0.20;82.60;;;;;;5040369;28;20032;-78
2023/04/05 00:58:22;;;;;;;1.33;0.73;;;0.20;82.90;;;;;;5052293;28;20048;-78
2023/04/05 01:01:01;;;;;;;1.33;0.75;;;0.20;83.00;;;;;;5054631;28;20021;-78
2023/04/05 01:03:30;;;;;;;0.80;0.80;;;0.10;83.20;;;;;;5062680;28;20063;-77
2023/04/05 01:06:31;;;;;;;0.70;0.55;;;0.10;83.20;;;;;;5058045;28;20024;-78
2023/04/05 01:09:16;;;;;;;1.38;0.80;;;0.10;83.40;;;;;;5051459;28;20029;-77
2023/04/05 01:11:43;;;;;;;2.13;0.88;;;0.10;83.60;;;;;;5053282;28;20030;-78
2023/04/05 01:14:09;;;;;;;2.20;0.70;;;0.10;83.90;;;;;;5061056;28;20047;-76
2023/04/05 01:16:35;;;;;;;1.88;0.90;;;0.00;83.90;;;;;;5071426;28;20013;-75
2023/04/05 01:19:02;;;;;;;1.08;0.80;;;0.00;84.10;;;;;;5075340;28;20017;-76
2023/04/05 01:21:36;;;;;;;1.17;0.77;;;0.00;84.30;;;;;;5075782;28;20009;-77
2023/04/05 01:24:26;;;;;;;1.42;0.95;;;0.00;84.60;;;;;;5065980;28;20041;-75
2023/04/05 01:27:07;;;;;;;1.42;0.93;;;0.00;84.70;;;;;;5074547;28;20013;-75
2023/04/05 01:29:41;;;;;;;1.20;1.10;;;0.00;85.00;;;;;;5069786;28;20021;-77
2023/04/05 01:32:28;;;;;;;1.52;0.68;;;0.00;85.30;;;;;;5079017;28;20033;-76
2023/04/05 01:35:03;;;;;;;1.63;0.70;;;0.00;85.70;;;;;;5070552;28;20025;-75
2023/04/05 01:37:33;;;;;;;1.00;0.75;;;0.00;85.90;;;;;;5058156;28;20057;-77
2023/04/05 01:40:00;;;;;;;1.20;0.77;;;0.00;86.10;;;;;;5058557;28;20024;-75
2023/04/05 01:42:26;;;;;;;0.98;0.70;;;-0.10;86.10;;;;;;5057928;28;20044;-77
2023/04/05 01:44:54;;;;;;;1.30;0.80;;;-0.10;86.30;;;;;;5046582;28;20039;-78
2023/04/05 01:47:20;;;;;;;0.77;0.77;;;-0.10;86.60;;;;;;5041236;28;20044;-78
2023/04/05 01:49:46;;;;;;;1.38;0.80;;;0.00;86.60;;;;;;5042826;28;20049;-78
2023/04/05 01:52:11;;;;;;;1.10;0.77;;;0.00;86.50;;;;;;5050138;28;20045;-76
2023/04/05 01:54:37;;;;;;;0.93;0.70;;;0.00;86.40;;;;;;5064366;28;20029;-76
2023/04/05 01:57:04;;;;;;;0.82;0.80;;;0.00;86.30;;;;;;5068473;28;20054;-77
2023/04/05 01:59:30;;;;;;;1.42;0.85;;;-0.10;86.00;;;;;;5051409;28;20081;-78
2023/04/05 02:01:55;;;;;;;1.70;1.30;;;0.00;85.80;;;;;;5048056;28;20028;-78
2023/04/05 02:04:21;;;;;;;1.92;0.90;;;0.00;85.80;;;;;;5043624;28;20028;-77
2023/04/05 02:06:47;;;;;;;1.00;0.90;;;-0.10;85.50;;;;;;5058018;28;20473;-77
2023/04/05 02:09:12;;;;;;;2.40;1.20;;;-0.10;85.70;;;;;;5062666;28;20031;-79
2023/04/05 02:11:38;;;;;;;1.95;0.98;;;-0.10;85.70;;;;;;5064571;28;20452;-79
2023/04/05 02:14:04;;;;;;;1.92;1.60;;;-0.10;85.80;;;;;;5061145;28;20029;-77
2023/04/05 02:16:32;;;;;;;1.45;1.08;;;-0.10;85.90;;;;;;5060860;28;20064;-78
2023/04/05 02:18:58;;;;;;;2.15;1.00;;;-0.20;86.00;;;;;;5060102;28;20021;-78
2023/04/05 02:21:25;;;;;;;1.88;1.35;;;-0.20;86.20;;;;;;5061016;28;20041;-78
2023/04/05 02:23:54;;;;;;;2.30;1.40;;;-0.20;86.40;;;;;;5048884;28;20033;-79
2023/04/05 02:26:20;;;;;;;1.50;1.40;;;-0.20;86.70;;;;;;5045314;28;20059;-78
2023/04/05 02:28:46;;;;;;;2.45;1.40;;;-0.30;87.00;;;;;;5050765;28;20021;-79
2023/04/05 02:31:12;;;;;;;2.90;1.92;;;-0.30;87.00;;;;;;5058279;28;20056;-78
2023/04/05 02:33:41;;;;;;;2.97;1.88;;;-0.30;87.00;;;;;;5057845;28;20061;-79
2023/04/05 02:36:10;;;;;;;2.47;1.85;;;-0.30;87.10;;;;;;5057548;28;20045;-78
2023/04/05 02:38:36;;;;;;;2.70;1.65;;;-0.30;86.90;;;;;;5039339;28;20029;-77
2023/04/05 02:41:02;;;;;;;4.57;2.13;;;-0.30;86.60;;;;;;5041264;28;20548;-80
2023/04/05 02:43:28;;;;;;;6.68;3.38;;;-0.30;86.10;;;;;;5040571;28;20033;-77
2023/04/05 02:45:54;;;;;;;4.47;2.63;;;-0.30;85.40;;;;;;5039610;28;20359;-77
2023/04/05 02:48:20;;;;;;;8.25;4.18;;;-0.40;85.20;;;;;;5057963;28;20036;-78
2023/04/05 02:50:50;;;;;;;6.90;3.40;;;-0.40;85.30;;;;;;5059057;28;20033;-78
2023/04/05 02:53:17;;;;;;;7.30;3.35;;;-0.50;85.60;;;;;;5046879;28;20429;-77
2023/04/05 02:55:53;;;;;;;5.70;3.20;;;-0.50;85.90;;;;;;5057659;28;20021;-78
2023/04/05 02:58:19;;;;;;;6.53;3.50;;;-0.60;86.20;;;;;;5040101;28;20151;-78
2023/04/05 03:00:50;;;;;;;5.03;3.05;;;-0.60;86.60;;;;;;5041993;28;20060;-78
2023/04/05 03:03:20;;;;;;;5.45;3.35;;;-0.70;86.90;;;;;;5047749;28;20017;-78
2023/04/05 03:05:47;;;;;;;6.30;4.10;;;-0.70;87.50;;;;;;5043368;28;20026;-78
2023/04/05 03:08:23;;;;;;;6.55;3.67;;;-0.70;88.00;;;;;;5053564;28;20131;-76
2023/04/05 03:10:51;;;;;;;6.13;3.30;;;-0.80;88.30;;;;;;5062979;28;20035;-77
2023/04/05 03:13:17;;;;;;;5.45;3.22;;;-0.80;88.70;;;;;;5063266;28;20032;-78
2023/04/05 03:15:43;;;;;;;5.10;3.38;;;-0.90;88.90;;;;;;5061866;28;20029;-78
2023/04/05 03:18:09;;;;;;;3.85;3.13;;;-0.90;89.20;;;;;;5061204;28;20084;-77
2023/04/05 03:20:39;;;;;;;4.15;2.65;;;-0.90;89.50;;;;;;5047896;28;20017;-77
2023/04/05 03:23:06;;;;;;;4.78;3.67;;;-0.90;89.60;;;;;;5045628;28;20104;-78
2023/04/05 03:25:36;;;;;;;8.68;3.50;;;-0.90;89.80;;;;;;5042698;28;20052;-78
2023/04/05 03:28:05;;;;;;;4.97;3.38;;;-0.90;89.90;;;;;;5052586;28;20029;-80
2023/04/05 03:30:34;;;;;;;4.65;2.65;;;-0.90;90.00;;;;;;5054209;28;20381;-78
2023/04/05 03:33:01;;;;;;;5.57;3.03;;;-0.90;90.20;;;;;;5056463;28;20042;-78
2023/04/05 03:35:28;;;;;;;3.78;2.60;;;-0.90;90.30;;;;;;5058236;28;20021;-78
2023/04/05 03:37:55;;;;;;;4.20;2.55;;;-1.00;90.40;;;;;;5059173;28;20117;-79
2023/04/05 03:40:24;;;;;;;2.33;1.80;;;-1.00;90.40;;;;;;5059577;28;20031;-78
2023/04/05 03:42:50;;;;;;;3.75;2.30;;;-1.00;90.50;;;;;;5062063;28;20116;-78
2023/04/05 03:45:16;;;;;;;3.08;2.35;;;-1.00;90.60;;;;;;5064593;28;20021;-76
2023/04/05 03:47:42;;;;;;;4.50;2.60;;;-1.00;90.60;;;;;;5058050;28;20021;-78
2023/04/05 03:50:08;;;;;;;3.05;2.08;;;-1.00;90.70;;;;;;5058838;28;20077;-82
2023/04/05 03:52:34;;;;;;;2.85;2.30;;;-1.10;90.70;;;;;;5066378;28;20044;-84
2023/04/05 03:55:00;;;;;;;3.03;2.10;;;-1.10;90.70;;;;;;5064766;28;20114;-82
2023/04/05 03:57:27;;;;;;;3.30;2.00;;;-1.10;90.60;;;;;;5057378;28;20025;-83
2023/04/05 03:59:53;;;;;;;2.58;1.80;;;-1.10;90.80;;;;;;5044560;28;20100;-83
2023/04/05 04:02:19;;;;;;;2.92;2.03;;;-1.10;90.40;;;;;;5042223;28;20021;-83
2023/04/05 04:04:46;;;;;;;3.38;2.20;;;-1.10;90.30;;;;;;5043182;28;20029;-81
2023/04/05 04:07:12;;;;;;;4.80;2.25;;;-1.10;90.30;;;;;;5043479;28;20025;-82
2023/04/05 04:09:37;;;;;;;4.97;2.33;;;-1.10;90.20;;;;;;5050698;28;20021;-83
2023/04/05 04:12:03;;;;;;;5.53;2.47;;;-1.10;90.30;;;;;;5072577;28;20097;-79
2023/04/05 04:14:29;;;;;;;4.57;2.17;;;-1.10;90.30;;;;;;5062220;28;20017;-79
2023/04/05 04:16:54;;;;;;;3.28;1.75;;;-1.10;90.30;;;;;;5066655;28;20029;-78
2023/04/05 04:19:20;;;;;;;3.10;2.15;;;-1.10;90.30;;;;;;5074218;28;20017;-78
2023/04/05 04:21:50;;;;;;;4.38;2.10;;;-1.20;90.20;;;;;;5065362;28;20033;-79
2023/04/05 04:24:17;;;;;;;3.03;2.00;;;-1.20;90.20;;;;;;5051088;28;20101;-79
2023/04/05 04:26:47;;;;;;;2.88;2.10;;;-1.20;90.10;;;;;;5045778;28;20022;-79
2023/04/05 04:29:15;;;;;;;5.03;2.22;;;-1.10;90.10;;;;;;5045750;28;20022;-78
2023/04/05 04:31:44;;;;;;;3.05;2.33;;;-1.20;90.00;;;;;;5056358;28;20037;-79
2023/04/05 04:34:13;;;;;;;4.53;2.78;;;-1.20;90.00;;;;;;5057212;28;20370;-80
2023/04/05 04:36:41;;;;;;;4.50;2.53;;;-1.20;90.00;;;;;;5056642;28;20099;-79
2023/04/05 04:39:09;;;;;;;4.57;3.05;;;-1.20;90.10;;;;;;5056915;28;20017;-79
2023/04/05 04:41:37;;;;;;;4.55;2.85;;;-1.20;90.10;;;;;;5056131;28;20036;-79
2023/04/05 04:44:03;;;;;;;6.15;2.67;;;-1.20;90.20;;;;;;5055439;28;20104;-79
2023/04/05 04:46:33;;;;;;;4.45;2.90;;;-1.20;90.20;;;;;;5056045;28;20029;-79
2023/04/05 04:49:05;;;;;;;5.20;2.65;;;-1.20;90.30;;;;;;5054728;28;20031;-79
2023/04/05 04:51:31;;;;;;;4.88;2.33;;;-1.20;90.40;;;;;;5056918;28;20029;-79
2023/04/05 04:53:57;;;;;;;5.30;3.00;;;-1.20;90.30;;;;;;5055554;28;20063;-77
2023/04/05 04:56:23;;;;;;;4.15;2.90;;;-1.20;90.30;;;;;;5055568;28;20230;-79
2023/04/05 04:58:48;;;;;;;3.90;2.55;;;-1.20;90.30;;;;;;5048629;28;20501;-78
2023/04/05 05:01:14;;;;;;;5.22;3.00;;;-1.10;90.40;;;;;;5051638;28;20021;-79
2023/04/05 05:03:41;;;;;;;6.20;2.67;;;-1.20;90.40;;;;;;5039637;28;20026;-79
2023/04/05 05:06:07;;;;;;;5.25;2.78;;;-1.10;90.40;;;;;;5040357;28;20025;-78
2023/04/05 05:08:33;;;;;;;5.25;3.10;;;-1.20;90.40;;;;;;5039868;28;20040;-79
2023/04/05 05:11:00;;;;;;;4.35;2.88;;;-1.10;90.30;;;;;;5039917;28;20022;-79
2023/04/05 05:13:25;;;;;;;5.82;2.88;;;-1.20;90.30;;;;;;5038961;28;20033;-79
2023/04/05 05:15:51;;;;;;;4.13;3.00;;;-1.20;90.30;;;;;;5037650;28;20064;-78
2023/04/05 05:18:17;;;;;;;7.68;3.88;;;-1.20;90.30;;;;;;5037976;28;20021;-79
2023/04/05 05:20:43;;;;;;;6.05;3.72;;;-1.10;90.30;;;;;;5041350;28;20053;-78
2023/04/05 05:23:08;;;;;;;4.45;2.97;;;-1.10;90.30;;;;;;5039992;28;20478;-78
2023/04/05 05:25:34;;;;;;;4.30;3.15;;;-1.10;90.30;;;;;;5041172;28;20033;-78
2023/04/05 05:28:00;;;;;;;5.82;3.53;;;-1.10;90.30;;;;;;5048898;28;20037;-78
2023/04/05 05:30:27;;;;;;;6.05;3.03;;;-1.10;90.20;;;;;;5056287;28;20055;-78
2023/04/05 05:32:53;;;;;;;5.50;3.25;;;-1.10;90.20;;;;;;5066189;28;20540;-78
2023/04/05 05:35:19;;;;;;;6.15;3.40;;;-1.10;90.20;;;;;;5043616;28;20030;-76
2023/04/05 05:37:45;;;;;;;5.85;3.17;;;-1.10;90.10;;;;;;5058861;28;20025;-76
2023/04/05 05:40:12;;;;;;;6.68;3.25;;;-1.10;90.10;;;;;;5070924;28;20052;-77
2023/04/05 05:42:38;;;;;;;5.28;3.28;;;-1.00;90.10;;;;;;5054646;28;20604;-75
2023/04/05 05:45:05;;;;;;;6.65;3.30;;;-1.00;90.10;;;;;;5038453;28;20029;-77
2023/04/05 05:47:31;;;;;;;5.32;3.28;;;-1.00;90.10;;;;;;5053038;28;20040;-77
2023/04/05 05:49:57;;;;;;;4.38;2.70;;;-0.90;90.20;;;;;;5060117;28;20021;-75
2023/04/05 05:52:23;;;;;;;3.50;2.70;;;-0.90;90.20;;;;;;5058687;28;20097;-77
2023/04/05 05:54:49;;;;;;;5.10;2.78;;;-0.80;90.10;;;;;;5069141;28;20069;-76
2023/04/05 05:57:14;;;;;;;9.18;3.67;;;-0.80;90.10;;;;;;5061210;28;20028;-79
2023/04/05 05:59:40;;;;;;;8.30;3.47;;;-0.70;90.00;;;;;;5038908;28;20022;-77
2023/04/05 06:02:07;;;;;;;5.95;3.05;;;-0.60;89.60;;;;;;5038321;28;20025;-77
2023/04/05 06:04:33;;;;;;;6.15;3.03;;;-0.60;89.60;;;;;;5037578;28;20151;-78
2023/04/05 06:07:00;;;;;;;4.90;2.75;;;-0.50;89.50;;;;;;5038946;28;20026;-80
2023/04/05 06:09:27;;;;;;;2.53;2.10;;;-0.40;89.50;;;;;;5037766;28;20033;-79
2023/04/05 06:11:53;;;;;;;2.40;1.80;;;-0.30;89.10;;;;;;5039302;28;20456;-79
2023/04/05 06:14:19;;;;;;;5.43;2.13;;;-0.20;88.70;;;;;;5037776;28;20025;-78
2023/04/05 06:16:45;;;;;;;2.53;1.67;;;-0.10;88.60;;;;;;5039143;28;20025;-78
2023/04/05 06:19:11;;;;;;;3.22;1.73;;;0.00;88.20;;;;;;5039137;28;20674;-78
2023/04/05 06:21:36;;;;;;;2.90;1.67;;;0.10;88.00;;;;;;5039857;28;20148;-77
2023/04/05 06:24:02;;;;;;;2.70;1.50;;;0.20;87.30;;;;;;5041102;28;20029;-77
2023/04/05 06:26:28;;;;;;;3.10;2.05;;;0.30;87.00;;;;;;5047359;28;20074;-76
2023/04/05 06:28:55;;;;;;;2.53;1.83;;;0.40;86.50;;;;;;5058817;28;20029;-78
2023/04/05 06:31:33;;;;;;;5.97;2.67;;;0.40;86.00;;;;;;5039109;28;20025;-77
2023/04/05 06:33:59;;;;;;;4.05;2.67;;;0.40;85.60;;;;;;5037609;28;20037;-78
2023/04/05 06:36:30;;;;;;;6.88;3.13;;;0.40;85.30;;;;;;5039171;28;20435;-79
2023/04/05 06:38:56;;;;;;;4.10;2.73;;;0.40;85.10;;;;;;5058125;28;20032;-78
2023/04/05 06:41:21;;;;;;;3.50;2.58;;;0.40;85.00;;;;;;5058931;28;20277;-76
2023/04/05 06:43:47;;;;;;;7.93;3.40;;;0.40;85.10;;;;;;5056142;28;20429;-77
2023/04/05 06:46:13;;;;;;;6.47;3.92;;;0.50;84.80;;;;;;5056068;28;20043;-78
2023/04/05 06:48:39;;;;;;;6.10;3.00;;;0.50;84.40;;;;;;5050126;28;20029;-78
2023/04/05 06:51:05;;;;;;;3.83;2.55;;;0.40;84.40;;;;;;5066914;23;20041;-76
2023/04/05 06:53:31;;;;;;;6.15;2.78;;;0.50;84.40;;;;;;5035610;28;20132;-76
2023/04/05 06:55:58;;;;;;;3.63;2.83;;;0.60;84.50;;;;;;5036688;28;20017;-76
2023/04/05 06:58:25;;;;;;;7.15;2.88;;;0.70;84.10;;;;;;5033794;28;20021;-76
2023/04/05 07:00:51;;;;;;;5.93;3.00;;;0.70;83.80;;;;;;5022473;28;20018;-75
2023/04/05 07:03:17;;;;;;;5.07;3.00;;;0.80;83.60;;;;;;4998300;28;20023;-75
2023/04/05 07:05:55;;;;;;;4.05;2.88;;;0.80;82.90;;;;;;4995433;28;20339;-74
2023/04/05 07:08:22;;;;;;;4.65;2.40;;;0.90;82.80;;;;;;5015453;28;20017;-76
2023/04/05 07:10:49;;;;;;;5.00;2.60;;;1.00;82.80;;;;;;5015170;28;20024;-74
2023/04/05 07:13:16;;;;;;;5.10;2.53;;;1.10;82.50;;;;;;5014690;28;20026;-75
2023/04/05 07:15:42;;;;;;;4.10;2.80;;;1.20;82.20;;;;;;5012590;28;20040;-76
2023/04/05 07:18:08;;;;;;;5.15;2.65;;;1.30;81.40;;;;;;5014703;28;20033;-75
2023/04/05 07:20:34;;;;;;;3.42;2.22;;;1.40;81.30;;;;;;5015045;28;20105;-75
2023/04/05 07:22:59;;;;;;;5.28;2.53;;;1.50;81.30;;;;;;5015114;28;20050;-76
2023/04/05 07:25:26;;;;;;;5.03;3.00;;;1.70;80.80;;;;;;5015735;28;20087;-76
2023/04/05 07:27:52;;;;;;;6.20;3.03;;;1.70;79.80;;;;;;5005288;28;20050;-76
2023/04/05 07:30:18;;;;;;;5.75;3.05;;;1.90;80.20;;;;;;5014814;28;20305;-76
2023/04/05 07:32:44;;;;;;;3.83;2.42;;;2.00;78.70;;;;;;5017801;28;20033;-75
2023/04/05 07:35:10;;;;;;;9.32;3.50;;;2.10;78.40;;;;;;5019044;28;20028;-76
2023/04/05 07:37:36;;;;;;;4.35;2.85;;;2.20;78.00;;;;;;5015219;28;20041;-76
2023/04/05 07:40:03;;;;;;;8.10;3.72;;;2.40;77.50;;;;;;5014505;28;20382;-76
2023/04/05 07:42:30;;;;;;;5.03;2.97;;;2.40;76.10;;;;;;5013542;28;20026;-75
2023/04/05 07:44:56;;;;;;;6.00;2.58;;;2.50;75.70;;;;;;5011591;28;20038;-75
2023/04/05 07:47:22;;;;;;;4.30;2.17;;;2.60;75.50;;;;;;5012570;28;20075;-76
2023/04/05 07:49:48;;;;;;;4.72;2.10;;;2.80;75.90;;;;;;5015478;28;20041;-75
2023/04/05 07:52:14;;;;;;;5.35;2.90;;;3.00;74.60;;;;;;5013957;28;20472;-77
2023/04/05 07:54:42;;;;;;;6.97;3.05;;;3.00;73.70;;;;;;5013735;28;20058;-76
2023/04/05 07:57:09;;;;;;;5.63;2.75;;;3.10;73.20;;;;;;5009401;28;20034;-75
2023/04/05 07:59:35;;;;;;;5.80;3.05;;;3.20;73.10;;;;;;5002548;28;20026;-74
2023/04/05 08:02:01;;;;;;;3.88;2.72;;;3.40;72.60;;;;;;4994761;28;20077;-75
2023/04/05 08:04:27;;;;;;;3.70;2.50;;;3.50;71.80;;;;;;4993942;28;20125;-76
2023/04/05 08:06:52;;;;;;;5.68;2.55;;;3.70;71.20;;;;;;4994194;28;20456;-76
2023/04/05 08:09:18;;;;;;;3.67;2.10;;;3.80;70.70;;;;;;4995795;28;20034;-75
2023/04/05 08:11:44;;;;;;;3.33;2.05;;;4.10;70.40;;;;;;5001996;28;20073;-75
2023/04/05 08:14:10;;;;;;;4.50;2.58;;;4.40;69.60;;;;;;5014971;28;20026;-76
2023/04/05 08:16:35;;;;;;;3.92;2.15;;;4.60;68.60;;;;;;5018244;28;20037;-74
2023/04/05 08:19:01;;;;;;;6.63;3.55;;;4.70;67.60;;;;;;5026960;28;20052;-75
2023/04/05 08:21:27;;;;;;;7.28;3.05;;;4.80;65.30;;;;;;5023033;28;20030;-77
2023/04/05 08:23:52;;;;;;;4.53;2.50;;;4.70;65.30;;;;;;5006087;28;20034;-77
2023/04/05 08:26:18;;;;;;;10.43;3.85;;;4.90;65.60;;;;;;5006991;28;20048;-76
2023/04/05 08:28:44;;;;;;;7.03;3.90;;;5.00;63.80;;;;;;5010751;28;20026;-76
2023/04/05 08:31:09;;;;;;;6.47;2.83;;;4.90;63.20;;;;;;5030448;28;20045;-75
2023/04/05 08:33:35;;;;;;;3.15;2.40;;;5.10;63.30;;;;;;5028830;28;20486;-76
2023/04/05 08:36:08;;;;;;;4.55;2.00;;;5.20;63.10;;;;;;5013549;28;20459;-75
2023/04/05 08:38:34;;;;;;;4.35;2.42;;;5.50;62.50;;;;;;5017452;28;20089;-75
2023/04/05 08:41:11;;;;;;;3.45;1.90;;;5.70;61.70;;;;;;5025794;28;20469;-75
2023/04/05 08:43:49;;;;;;;4.43;2.17;;;6.00;61.50;;;;;;5026870;28;20030;-74
2023/04/05 08:46:16;;;;;;;6.97;3.28;;;6.30;60.20;;;;;;5028376;28;20037;-76
2023/04/05 08:48:42;;;;;;;6.25;2.72;;;6.40;59.10;;;;;;5022033;28;20423;-76
2023/04/05 08:51:08;;;;;;;4.82;2.78;;;6.40;58.60;;;;;;5021001;28;20037;-75
2023/04/05 08:53:34;;;;;;;6.63;2.90;;;6.40;57.40;;;;;;5021092;28;20029;-76
2023/04/05 08:56:03;;;;;;;5.03;2.92;;;6.30;55.70;;;;;;5017372;28;20045;-75
2023/04/05 08:58:30;;;;;;;6.32;3.05;;;6.10;56.30;;;;;;5010608;28;20014;-75
2023/04/05 09:00:57;;;;;;;4.78;2.58;;;5.60;56.90;;;;;;5011016;28;20054;-75
2023/04/05 09:03:28;;;;;;;4.47;2.22;;;5.40;57.90;;;;;;5000244;28;20034;-76
2023/04/05 09:05:57;;;;;;;4.82;2.58;;;5.50;58.40;;;;;;5016934;28;20040;-74
2023/04/05 09:08:24;;;;;;;5.57;2.70;;;5.50;57.90;;;;;;5019344;28;20036;-78
2023/04/05 09:10:53;;;;;;;4.15;2.33;;;5.50;57.70;;;;;;5019681;28;20104;-76
2023/04/05 09:13:18;;;;;;;4.03;2.40;;;5.30;58.20;;;;;;5019052;28;20073;-77
2023/04/05 09:15:45;;;;;;;5.10;2.08;;;5.70;58.10;;;;;;5001998;28;20502;-75
2023/04/05 09:18:11;;;;;;;4.57;2.20;;;6.20;57.30;;;;;;5004582;28;20022;-76
2023/04/05 09:20:37;;;;;;;4.47;2.35;;;6.60;55.70;;;;;;5011146;28;20398;-76
2023/04/05 09:23:03;;;;;;;5.32;2.50;;;6.60;55.30;;;;;;5009222;28;20026;-76
2023/04/05 09:25:31;;;;;;;5.78;2.50;;;6.30;55.00;;;;;;5030935;28;20098;-75
2023/04/05 09:28:02;;;;;;;5.13;3.17;;;5.80;55.10;;;;;;5016745;28;20036;-76
2023/04/05 09:30:31;;;;;;;5.93;2.67;;;5.60;54.90;;;;;;5017084;28;20022;-77
2023/04/05 09:32:57;;;;;;;3.55;2.40;;;5.60;55.40;;;;;;5014616;28;20148;-74
2023/04/05 09:35:25;;;;;;;3.55;2.35;;;5.60;55.30;;;;;;5023464;28;20018;-74
2023/04/05 09:37:53;;;;;;;4.85;2.00;;;5.50;54.30;;;;;;5034360;28;20018;-76
2023/04/05 09:40:19;;;;;;;5.78;3.08;;;5.30;53.90;;;;;;5028028;28;20041;-76
2023/04/05 09:42:46;;;;;;;3.03;2.50;;;5.30;53.60;;;;;;5006481;28;20058;-74
2023/04/05 09:45:13;;;;;;;4.88;2.55;;;5.70;52.60;;;;;;4997404;28;20430;-76
2023/04/05 09:47:40;;;;;;;5.50;2.75;;;6.10;52.00;;;;;;5006431;28;20390;-76
2023/04/05 09:50:15;;;;;;;3.13;2.28;;;6.50;51.80;;;;;;5015254;28;20033;-76
2023/04/05 09:52:42;;;;;;;3.67;2.10;;;6.90;50.90;;;;;;5015320;28;20037;-76
2023/04/05 09:55:08;;;;;;;2.95;1.92;;;7.30;50.90;;;;;;5013873;28;20022;-76
2023/04/05 09:57:36;;;;;;;3.67;2.00;;;8.00;50.10;;;;;;5004578;28;20486;-75
2023/04/05 10:00:04;;;;;;;2.17;1.90;;;8.50;48.90;;;;;;5007814;28;20244;-74
2023/04/05 10:02:37;;;;;;;3.28;2.08;;;8.90;48.10;;;;;;5014617;28;20029;-76
2023/04/05 10:05:11;;;;;;;3.28;2.25;;;9.00;45.90;;;;;;5012173;28;20025;-75
2023/04/05 10:07:37;;;;;;;4.22;2.70;;;9.00;45.60;;;;;;5013962;28;20339;-76
2023/04/05 10:10:03;;;;;;;3.45;2.40;;;9.10;45.40;;;;;;5013481;28;20029;-75
2023/04/05 10:12:31;;;;;;;3.80;2.67;;;8.90;45.30;;;;;;5013820;28;20034;-75
2023/04/05 10:14:57;;;;;;;4.63;2.15;;;8.60;45.10;;;;;;5012718;28;20056;-76
2023/04/05 10:17:28;;;;;;;2.42;1.75;;;8.60;46.20;;;;;;5014740;28;20049;-75
2023/04/05 10:20:19;;;;;;;4.60;2.67;;;8.90;46.20;;;;;;5014877;28;20038;-75
2023/04/05 10:23:05;;;;;;;2.38;1.95;;;9.00;44.00;;;;;;5014871;28;20395;-73
2023/04/05 10:25:50;;;;;;;3.65;2.42;;;8.90;45.10;;;;;;5014538;28;20033;-75
2023/04/05 10:28:34;;;;;;;5.68;2.60;;;9.20;45.10;;;;;;5010625;28;20061;-76
2023/04/05 10:31:28;;;;;;;1.95;1.73;;;9.50;44.90;;;;;;5012841;28;20065;-74
2023/04/05 10:34:09;;;;;;;3.92;2.08;;;9.70;44.40;;;;;;5012245;28;20054;-76
2023/04/05 10:36:46;;;;;;;3.38;2.20;;;9.80;44.10;;;;;;5011120;28;20169;-75
2023/04/05 10:39:20;;;;;;;4.55;2.00;;;9.80;43.40;;;;;;4997784;28;20037;-75
2023/04/05 10:41:47;;;;;;;5.22;2.22;;;9.80;43.50;;;;;;5004383;28;20048;-76
2023/04/05 10:44:14;;;;;;;5.07;3.20;;;9.60;42.80;;;;;;4998107;28;20045;-75
2023/04/05 10:46:41;;;;;;;4.82;2.45;;;9.40;43.30;;;;;;4994148;28;20062;-75
2023/04/05 10:49:20;;;;;;;2.83;2.25;;;9.00;44.50;;;;;;5003629;28;20428;-75
2023/04/05 10:51:47;;;;;;;4.78;2.53;;;8.90;45.30;;;;;;5011830;28;20030;-75
2023/04/05 10:54:15;;;;;;;3.72;2.53;;;8.80;45.20;;;;;;5013488;28;20026;-76
2023/04/05 10:56:43;;;;;;;4.43;2.60;;;8.90;45.00;;;;;;5011307;28;20108;-74
2023/04/05 10:59:12;;;;;;;4.88;2.00;;;8.90;44.90;;;;;;5003107;28;20026;-76
2023/04/05 11:01:39;;;;;;;5.68;2.42;;;9.00;45.50;;;;;;5013752;28;20470;-77
2023/04/05 11:04:16;;;;;;;6.47;3.65;;;9.10;44.30;;;;;;5013200;28;20041;-74
2023/04/05 11:06:42;;;;;;;3.63;2.60;;;9.00;43.80;;;;;;5013861;28;20418;-76
2023/04/05 11:09:14;;;;;;;6.97;2.40;;;8.90;44.40;;;;;;5014051;28;20029;-74
2023/04/05 11:11:42;;;;;;;3.35;2.25;;;9.10;45.20;;;;;;5014145;28;20018;-75
2023/04/05 11:14:24;;;;;;;4.03;2.28;;;9.40;45.40;;;;;;5000794;28;20336;-75
2023/04/05 11:16:58;;;;;;;;;;;9.80;44.30;;;;;;4994689;28;20101;-76
2023/04/05 11:19:42;;;;;;;3.95;2.45;;;10.10;43.60;;;;;;4999096;28;19906;-75
2023/04/05 11:22:08;;;;;;;5.25;2.72;;;10.30;42.90;;;;;;5006289;28;20169;-74
2023/04/05 11:24:56;;;;;;;5.30;2.80;;;10.40;42.70;;;;;;5012503;28;20076;-74
2023/04/05 11:27:27;;;;;;;4.50;2.97;;;10.10;42.90;;;;;;5013065;28;20061;-75
2023/04/05 11:29:53;;;;;;;5.88;3.10;;;9.60;43.40;;;;;;5011891;28;20111;-76
2023/04/05 11:32:20;;;;;;;4.28;2.58;;;9.30;44.20;;;;;;5010703;28;20076;-76
2023/04/05 11:35:06;;;;;;;3.05;2.35;;;9.10;44.90;;;;;;5011235;28;20035;-76
2023/04/05 11:37:57;;;;;;;4.85;2.78;;;9.10;45.00;;;;;;5013233;28;20018;-75
2023/04/05 11:40:31;;;;;;;5.43;2.58;;;9.10;45.10;;;;;;5008145;28;20489;-75
2023/04/05 11:43:06;;;;;;;4.78;2.33;;;9.20;44.90;;;;;;5015903;28;20048;-74
2023/04/05 11:45:33;;;;;;;4.05;2.28;;;9.20;45.40;;;;;;5008311;28;20420;-76
2023/04/05 11:48:09;;;;;;;3.55;2.08;;;9.30;45.70;;;;;;5007329;28;20391;-76
2023/04/05 11:50:36;;;;;;;2.00;1.70;;;9.40;45.30;;;;;;4995011;28;20090;-75
2023/04/05 11:53:12;;;;;;;2.88;2.03;;;9.70;44.80;;;;;;5014456;28;20025;-76
2023/04/05 11:55:40;;;;;;;4.60;2.05;;;9.90;44.40;;;;;;5012560;28;20113;-74
2023/04/05 11:58:17;;;;;;;6.22;2.90;;;10.10;44.20;;;;;;5013481;28;20486;-76
2023/04/05 12:00:45;;;;;;;4.15;3.05;;;10.00;44.30;;;;;;5013425;28;20030;-77
2023/04/05 12:03:14;;;;;;;3.10;2.30;;;9.90;44.20;;;;;;5013008;28;20026;-75
2023/04/05 12:05:51;;;;;;;2.97;2.58;;;9.90;44.50;;;;;;5013334;28;20022;-75
2023/04/05 12:08:18;;;;;;;3.88;2.70;;;9.90;43.90;;;;;;5013965;28;20100;-76
2023/04/05 12:10:52;;;;;;;3.97;2.22;;;9.70;44.30;;;;;;5012342;28;20036;-76
2023/04/05 12:13:25;;;;;;;4.15;2.38;;;9.80;44.90;;;;;;5012677;28;20048;-76
2023/04/05 12:15:50;;;;;;;4.63;2.20;;;9.50;44.50;;;;;;5011851;28;20018;-75
2023/04/05 12:18:16;;;;;;;2.35;2.05;;;9.20;44.90;;;;;;5008909;28;20029;-74
2023/04/05 12:20:42;;;;;;;4.43;2.95;;;9.40;45.40;;;;;;5007793;28;20030;-77
2023/04/05 12:23:08;;;;;;;4.53;2.88;;;9.70;45.00;;;;;;4997239;28;20045;-77
2023/04/05 12:25:37;;;;;;;3.65;2.53;;;9.90;43.70;;;;;;5016002;28;20026;-77
2023/04/05 12:28:05;;;;;;;4.93;2.30;;;9.90;44.00;;;;;;5013853;28;20033;-74
2023/04/05 12:30:35;;;;;;;3.05;2.00;;;10.10;44.30;;;;;;5012977;28;20029;-75
2023/04/05 12:33:09;;;;;;;4.47;2.33;;;10.30;43.60;;;;;;5012052;28;20390;-75
2023/04/05 12:35:35;;;;;;;4.57;2.58;;;10.40;43.40;;;;;;5007319;28;20022;-75
2023/04/05 12:38:04;;;;;;;3.03;2.25;;;10.40;43.30;;;;;;4996978;28;20026;-76
2023/04/05 12:40:31;;;;;;;4.40;2.67;;;10.50;43.30;;;;;;4991663;28;20397;-76
2023/04/05 12:43:04;;;;;;;6.50;3.30;;;10.40;43.30;;;;;;5000904;28;20204;-76
2023/04/05 12:45:38;;;;;;;5.53;3.00;;;10.20;43.00;;;;;;5011952;28;20030;-75
2023/04/05 12:48:08;;;;;;;2.97;1.92;;;9.60;44.10;;;;;;5011336;28;20117;-75
2023/04/05 12:50:34;;;;;;;3.10;2.00;;;9.20;45.30;;;;;;5006069;28;20112;-75
2023/04/05 12:53:00;;;;;;;4.82;1.67;;;9.00;45.50;;;;;;5003290;28;20050;-75
2023/04/05 12:55:28;;;;;;;2.53;1.42;;;8.70;45.90;;;;;;5004423;28;20054;-75
2023/04/05 12:57:59;;;;;;;1.60;1.50;;;8.60;46.50;;;;;;5004206;28;20030;-75
2023/04/05 13:00:27;;;;;;;2.15;1.95;;;8.80;47.00;;;;;;5022218;28;20290;-76